createdAt,value
2017-05-14T00:00:31.893Z,14.96
2017-05-14T00:01:32.470Z,14.99
2017-05-14T00:02:33.049Z,14.91
2017-05-14T00:03:33.627Z,14.85
2017-05-14T00:04:34.204Z,14.88
2017-05-14T00:05:34.781Z,14.85
2017-05-14T00:06:35.357Z,14.99
2017-05-14T00:07:35.934Z,14.86
2017-05-14T00:08:36.509Z,14.88
2017-05-14T00:09:37.085Z,14.88
2017-05-14T00:10:37.665Z,14.72
2017-05-14T00:11:38.241Z,14.68
2017-05-14T00:12:38.817Z,14.63
2017-05-14T00:13:39.393Z,14.59
2017-05-14T00:14:39.970Z,14.50
2017-05-14T00:15:40.546Z,14.47
2017-05-14T00:16:41.122Z,14.47
2017-05-14T00:17:41.700Z,14.37
2017-05-14T00:18:42.277Z,14.54
2017-05-14T00:19:42.858Z,14.50
2017-05-14T00:20:43.433Z,14.37
2017-05-14T00:21:44.010Z,14.53
2017-05-14T00:22:44.587Z,14.44
2017-05-14T00:23:45.163Z,14.50
2017-05-14T00:24:45.742Z,14.40
2017-05-14T00:25:46.332Z,14.45
2017-05-14T00:26:46.909Z,14.58
2017-05-14T00:27:47.488Z,14.48
2017-05-14T00:28:48.063Z,14.60
2017-05-14T00:29:48.642Z,14.48
2017-05-14T00:30:49.219Z,14.72
2017-05-14T00:31:49.797Z,14.68
2017-05-14T00:32:50.387Z,14.60
2017-05-14T00:33:50.967Z,14.60
2017-05-14T00:34:51.539Z,14.48
2017-05-14T00:35:52.117Z,14.59
2017-05-14T00:36:52.695Z,14.59
2017-05-14T00:37:53.272Z,14.45
2017-05-14T00:38:53.850Z,14.58
2017-05-14T00:39:54.428Z,14.62
2017-05-14T00:40:55.005Z,14.69
2017-05-14T00:41:55.581Z,14.72
2017-05-14T00:42:56.172Z,14.69
2017-05-14T00:43:56.734Z,14.69
2017-05-14T00:44:57.314Z,14.72
2017-05-14T00:45:57.892Z,14.63
2017-05-14T00:46:58.483Z,14.51
2017-05-14T00:47:59.063Z,14.50
2017-05-14T00:48:59.640Z,14.45
2017-05-14T00:50:00.218Z,14.44
2017-05-14T00:51:00.795Z,14.54
2017-05-14T00:52:01.372Z,14.45
2017-05-14T00:53:01.948Z,14.54
2017-05-14T00:54:02.526Z,14.62
2017-05-14T00:55:03.105Z,14.58
2017-05-14T00:56:03.681Z,14.48
2017-05-14T00:57:04.259Z,14.41
2017-05-14T00:58:04.834Z,14.17
2017-05-14T00:59:05.411Z,14.20
2017-05-14T01:00:05.987Z,14.11
2017-05-14T01:01:06.562Z,14.12
2017-05-14T01:02:07.141Z,14.30
2017-05-14T01:03:07.718Z,14.20
2017-05-14T01:04:08.296Z,14.17
2017-05-14T01:05:08.872Z,14.20
2017-05-14T01:06:09.461Z,14.32
2017-05-14T01:07:10.039Z,14.30
2017-05-14T01:08:10.615Z,14.25
2017-05-14T01:09:11.193Z,14.15
2017-05-14T01:10:11.769Z,14.22
2017-05-14T01:11:12.349Z,14.30
2017-05-14T01:12:12.924Z,14.23
2017-05-14T01:13:13.498Z,14.23
2017-05-14T01:14:14.079Z,14.14
2017-05-14T01:15:14.651Z,14.14
2017-05-14T01:16:15.227Z,14.20
2017-05-14T01:17:15.805Z,14.05
2017-05-14T01:18:16.384Z,13.93
2017-05-14T01:19:16.960Z,13.97
2017-05-14T01:20:17.537Z,13.93
2017-05-14T01:21:18.114Z,13.97
2017-05-14T01:22:18.690Z,14.03
2017-05-14T01:23:19.266Z,14.08
2017-05-14T01:24:19.856Z,14.03
2017-05-14T01:25:20.432Z,13.95
2017-05-14T01:26:21.009Z,13.95
2017-05-14T01:27:21.585Z,13.87
2017-05-14T01:28:22.162Z,13.81
2017-05-14T01:29:22.740Z,13.87
2017-05-14T01:30:23.319Z,13.75
2017-05-14T01:31:23.911Z,13.68
2017-05-14T01:32:24.490Z,13.72
2017-05-14T01:33:25.067Z,13.62
2017-05-14T01:34:25.645Z,13.68
2017-05-14T01:35:26.218Z,13.75
2017-05-14T01:36:26.794Z,13.60
2017-05-14T01:37:27.370Z,13.54
2017-05-14T01:38:27.946Z,13.54
2017-05-14T01:39:28.521Z,13.60
2017-05-14T01:40:29.096Z,13.62
2017-05-14T01:41:29.671Z,13.78
2017-05-14T01:42:30.250Z,13.71
2017-05-14T01:43:30.827Z,13.70
2017-05-14T01:44:31.406Z,13.72
2017-05-14T01:45:31.982Z,13.57
2017-05-14T01:46:32.557Z,13.46
2017-05-14T01:47:33.133Z,13.01
2017-05-14T01:48:33.708Z,13.16
2017-05-14T01:49:34.283Z,13.19
2017-05-14T01:50:34.859Z,13.27
2017-05-14T01:51:35.436Z,13.16
2017-05-14T01:52:36.010Z,13.33
2017-05-14T01:53:36.587Z,13.30
2017-05-14T01:54:37.164Z,13.28
2017-05-14T01:55:37.754Z,13.25
2017-05-14T01:56:38.331Z,13.25
2017-05-14T01:57:38.907Z,13.19
2017-05-14T01:58:39.484Z,13.19
2017-05-14T01:59:40.059Z,13.22
2017-05-14T02:00:40.636Z,13.13
2017-05-14T02:01:41.214Z,13.18
2017-05-14T02:02:41.792Z,13.22
2017-05-14T02:03:42.370Z,13.33
2017-05-14T02:04:42.961Z,13.27
2017-05-14T02:05:43.538Z,13.25
2017-05-14T02:06:44.116Z,13.27
2017-05-14T02:07:44.694Z,13.16
2017-05-14T02:08:45.270Z,13.16
2017-05-14T02:09:45.848Z,13.04
2017-05-14T02:10:46.425Z,12.94
2017-05-14T02:11:47.001Z,12.90
2017-05-14T02:12:47.577Z,12.90
2017-05-14T02:13:48.155Z,12.82
2017-05-14T02:14:48.731Z,12.76
2017-05-14T02:15:49.309Z,12.79
2017-05-14T02:16:49.887Z,12.75
2017-05-14T02:17:50.464Z,12.73
2017-05-14T02:18:51.042Z,12.61
2017-05-14T02:19:51.618Z,12.75
2017-05-14T02:20:52.196Z,12.67
2017-05-14T02:21:52.772Z,12.65
2017-05-14T02:22:53.348Z,12.65
2017-05-14T02:23:53.927Z,12.76
2017-05-14T02:24:54.499Z,12.70
2017-05-14T02:25:55.074Z,12.68
2017-05-14T02:26:55.654Z,12.64
2017-05-14T02:27:56.229Z,12.53
2017-05-14T02:28:56.802Z,12.55
2017-05-14T02:29:57.381Z,12.43
2017-05-14T02:30:57.959Z,12.55
2017-05-14T02:31:58.536Z,12.65
2017-05-14T02:32:59.110Z,12.50
2017-05-14T02:33:59.691Z,12.65
2017-05-14T02:35:00.279Z,12.65
2017-05-14T02:36:00.856Z,12.64
2017-05-14T02:37:01.433Z,12.73
2017-05-14T02:38:02.009Z,12.70
2017-05-14T02:39:02.590Z,12.65
2017-05-14T02:40:03.162Z,12.43
2017-05-14T02:41:03.737Z,12.32
2017-05-14T02:42:04.313Z,12.24
2017-05-14T02:43:04.890Z,12.24
2017-05-14T02:44:05.480Z,12.32
2017-05-14T02:45:06.054Z,12.37
2017-05-14T02:46:06.631Z,12.22
2017-05-14T02:47:07.207Z,12.28
2017-05-14T02:48:07.782Z,12.37
2017-05-14T02:49:08.358Z,12.28
2017-05-14T02:50:08.948Z,12.25
2017-05-14T02:51:09.530Z,12.10
2017-05-14T02:52:10.100Z,11.95
2017-05-14T02:53:10.676Z,11.95
2017-05-14T02:54:11.251Z,11.97
2017-05-14T02:55:11.828Z,11.88
2017-05-14T02:56:12.407Z,11.95
2017-05-14T02:57:12.980Z,11.95
2017-05-14T02:58:13.555Z,11.90
2017-05-14T02:59:14.131Z,12.10
2017-05-14T03:00:14.708Z,12.10
2017-05-14T03:01:15.285Z,12.15
2017-05-14T03:02:15.862Z,12.15
2017-05-14T03:03:16.439Z,12.07
2017-05-14T03:04:17.015Z,11.88
2017-05-14T03:05:17.595Z,12.00
2017-05-14T03:06:18.166Z,11.86
2017-05-14T03:07:18.741Z,11.87
2017-05-14T03:08:19.316Z,11.97
2017-05-14T03:09:19.892Z,11.80
2017-05-14T03:10:20.466Z,11.68
2017-05-14T03:11:21.043Z,11.59
2017-05-14T03:12:21.617Z,11.70
2017-05-14T03:13:22.195Z,11.84
2017-05-14T03:14:22.772Z,11.75
2017-05-14T03:15:23.349Z,11.77
2017-05-14T03:16:23.925Z,11.83
2017-05-14T03:17:24.544Z,11.66
2017-05-14T03:18:25.081Z,11.75
2017-05-14T03:19:25.654Z,11.84
2017-05-14T03:20:26.229Z,11.88
2017-05-14T03:21:26.805Z,11.95
2017-05-14T03:22:27.380Z,12.07
2017-05-14T03:23:27.955Z,11.91
2017-05-14T03:24:28.529Z,11.87
2017-05-14T03:25:29.106Z,11.95
2017-05-14T03:26:29.683Z,12.04
2017-05-14T03:27:30.259Z,11.88
2017-05-14T03:28:30.835Z,11.94
2017-05-14T03:29:31.411Z,11.81
2017-05-14T03:30:31.988Z,11.84
2017-05-14T03:31:32.577Z,11.70
2017-05-14T03:32:33.155Z,11.69
2017-05-14T03:33:33.732Z,11.83
2017-05-14T03:34:34.306Z,11.70
2017-05-14T03:35:34.883Z,11.68
2017-05-14T03:36:35.472Z,11.72
2017-05-14T03:37:36.048Z,11.73
2017-05-14T03:38:36.626Z,11.65
2017-05-14T03:39:37.202Z,11.55
2017-05-14T03:40:37.779Z,11.66
2017-05-14T03:41:38.357Z,11.69
2017-05-14T03:42:38.932Z,11.62
2017-05-14T03:43:39.510Z,11.60
2017-05-14T03:44:40.086Z,11.54
2017-05-14T03:45:40.664Z,11.52
2017-05-14T03:46:41.240Z,11.62
2017-05-14T03:47:41.816Z,11.72
2017-05-14T03:48:42.391Z,11.54
2017-05-14T03:49:42.966Z,11.52
2017-05-14T03:50:43.544Z,11.45
2017-05-14T03:51:44.119Z,11.41
2017-05-14T03:52:44.697Z,11.45
2017-05-14T03:53:45.278Z,11.51
2017-05-14T03:54:45.849Z,11.60
2017-05-14T03:55:46.426Z,11.44
2017-05-14T03:56:47.001Z,11.54
2017-05-14T03:57:47.578Z,11.54
2017-05-14T03:58:48.155Z,11.66
2017-05-14T03:59:48.733Z,11.52
2017-05-14T04:00:49.308Z,11.33
2017-05-14T04:01:49.897Z,11.35
2017-05-14T04:02:50.485Z,11.26
2017-05-14T04:03:51.060Z,11.12
2017-05-14T04:04:51.636Z,11.19
2017-05-14T04:05:52.212Z,11.25
2017-05-14T04:06:52.802Z,11.48
2017-05-14T04:07:53.377Z,11.51
2017-05-14T04:08:53.955Z,11.47
2017-05-14T04:09:54.531Z,11.41
2017-05-14T04:10:55.109Z,11.45
2017-05-14T04:11:55.686Z,11.57
2017-05-14T04:12:56.263Z,11.32
2017-05-14T04:13:56.840Z,11.26
2017-05-14T04:14:57.417Z,11.41
2017-05-14T04:15:57.996Z,11.57
2017-05-14T04:16:58.573Z,11.59
2017-05-14T04:17:59.165Z,11.75
2017-05-14T04:18:59.742Z,11.84
2017-05-14T04:20:00.323Z,11.95
2017-05-14T04:21:00.895Z,11.95
2017-05-14T04:22:01.474Z,11.77
2017-05-14T04:23:02.051Z,11.73
2017-05-14T04:24:02.630Z,11.72
2017-05-14T04:25:03.207Z,11.80
2017-05-14T04:26:03.783Z,11.73
2017-05-14T04:27:04.358Z,11.73
2017-05-14T04:28:04.936Z,11.90
2017-05-14T04:29:05.515Z,11.87
2017-05-14T04:30:06.093Z,11.88
2017-05-14T04:31:06.669Z,11.75
2017-05-14T04:32:07.246Z,11.75
2017-05-14T04:33:07.823Z,11.72
2017-05-14T04:34:08.403Z,11.70
2017-05-14T04:35:08.978Z,11.62
2017-05-14T04:36:09.556Z,11.69
2017-05-14T04:37:10.134Z,11.77
2017-05-14T04:38:10.712Z,11.80
2017-05-14T04:39:11.295Z,11.81
2017-05-14T04:40:11.869Z,11.80
2017-05-14T04:41:12.460Z,11.81
2017-05-14T04:42:13.040Z,11.94
2017-05-14T04:43:13.618Z,12.09
2017-05-14T04:44:14.195Z,12.22
2017-05-14T04:45:14.774Z,12.24
2017-05-14T04:46:15.352Z,12.21
2017-05-14T04:47:15.943Z,12.17
2017-05-14T04:48:16.521Z,12.40
2017-05-14T04:49:17.100Z,12.43
2017-05-14T04:50:17.678Z,12.55
2017-05-14T04:51:18.262Z,12.53
2017-05-14T04:52:18.835Z,12.45
2017-05-14T04:53:19.416Z,12.47
2017-05-14T04:54:19.992Z,12.46
2017-05-14T04:55:20.571Z,12.50
2017-05-14T04:56:21.150Z,12.53
2017-05-14T04:57:21.729Z,12.49
2017-05-14T04:58:22.307Z,12.54
2017-05-14T04:59:22.887Z,12.53
2017-05-14T05:00:23.466Z,12.73
2017-05-14T05:01:24.044Z,12.80
2017-05-14T05:02:24.622Z,12.86
2017-05-14T05:03:25.200Z,12.97
2017-05-14T05:04:25.780Z,12.97
2017-05-14T05:05:26.359Z,13.13
2017-05-14T05:06:26.937Z,13.19
2017-05-14T05:07:27.519Z,13.13
2017-05-14T05:08:28.108Z,13.16
2017-05-14T05:09:28.687Z,13.41
2017-05-14T05:10:29.266Z,13.39
2017-05-14T05:11:29.845Z,13.54
2017-05-14T05:12:30.423Z,13.62
2017-05-14T05:13:31.001Z,13.63
2017-05-14T05:14:31.582Z,13.74
2017-05-14T05:15:32.162Z,13.75
2017-05-14T05:16:32.740Z,13.85
2017-05-14T05:17:33.322Z,13.96
2017-05-14T05:18:33.901Z,14.08
2017-05-14T05:19:34.479Z,14.07
2017-05-14T05:20:35.058Z,14.08
2017-05-14T05:21:35.640Z,14.12
2017-05-14T05:22:36.217Z,14.22
2017-05-14T05:23:36.797Z,14.23
2017-05-14T05:24:37.376Z,14.32
2017-05-14T05:25:37.953Z,14.26
2017-05-14T05:26:38.534Z,14.29
2017-05-14T05:27:39.113Z,14.48
2017-05-14T05:28:39.693Z,14.41
2017-05-14T05:29:40.273Z,14.44
2017-05-14T05:30:40.851Z,14.65
2017-05-14T05:31:41.432Z,14.68
2017-05-14T05:32:42.010Z,14.77
2017-05-14T05:33:42.603Z,14.63
2017-05-14T05:34:43.183Z,14.78
2017-05-14T05:35:43.762Z,14.96
2017-05-14T05:36:44.343Z,14.89
2017-05-14T05:37:44.925Z,14.97
2017-05-14T05:38:45.503Z,14.97
2017-05-14T05:39:46.082Z,15.00
2017-05-14T05:40:46.662Z,15.14
2017-05-14T05:41:47.241Z,15.09
2017-05-14T05:42:47.823Z,15.19
2017-05-14T05:43:48.402Z,15.28
2017-05-14T05:44:48.982Z,15.25
2017-05-14T05:45:49.563Z,15.24
2017-05-14T05:46:50.143Z,15.28
2017-05-14T05:47:50.723Z,15.27
2017-05-14T05:48:51.302Z,15.33
2017-05-14T05:49:51.883Z,15.35
2017-05-14T05:50:52.464Z,15.42
2017-05-14T05:51:53.043Z,15.46
2017-05-14T05:52:53.622Z,15.58
2017-05-14T05:53:54.202Z,15.62
2017-05-14T05:54:54.782Z,15.67
2017-05-14T05:55:55.365Z,15.62
2017-05-14T05:56:55.945Z,15.59
2017-05-14T05:57:56.525Z,15.77
2017-05-14T05:58:57.104Z,15.82
2017-05-14T05:59:57.685Z,15.72
2017-05-14T06:00:58.268Z,15.72
2017-05-14T06:01:58.845Z,15.67
2017-05-14T06:02:59.424Z,15.70
2017-05-14T06:04:00.006Z,15.77
2017-05-14T06:05:00.586Z,15.91
2017-05-14T06:06:01.167Z,15.88
2017-05-14T06:07:01.748Z,15.91
2017-05-14T06:08:02.329Z,15.73
2017-05-14T06:09:02.910Z,15.80
2017-05-14T06:10:03.490Z,15.98
2017-05-14T06:11:04.071Z,15.94
2017-05-14T06:12:04.664Z,15.98
2017-05-14T06:13:05.243Z,16.16
2017-05-14T06:14:05.827Z,16.09
2017-05-14T06:15:06.405Z,16.15
2017-05-14T06:16:06.985Z,16.09
2017-05-14T06:17:07.579Z,16.05
2017-05-14T06:18:08.161Z,16.31
2017-05-14T06:19:08.739Z,16.29
2017-05-14T06:20:09.320Z,16.29
2017-05-14T06:21:09.903Z,16.35
2017-05-14T06:22:10.482Z,16.36
2017-05-14T06:23:11.061Z,16.38
2017-05-14T06:24:11.641Z,16.31
2017-05-14T06:25:12.222Z,16.26
2017-05-14T06:26:12.817Z,16.36
2017-05-14T06:27:13.399Z,16.49
2017-05-14T06:28:13.979Z,16.49
2017-05-14T06:29:14.571Z,16.61
2017-05-14T06:30:15.152Z,16.90
2017-05-14T06:31:15.732Z,16.66
2017-05-14T06:32:16.314Z,16.91
2017-05-14T06:33:16.897Z,16.96
2017-05-14T06:34:17.477Z,16.90
2017-05-14T06:35:18.057Z,17.04
2017-05-14T06:36:18.637Z,17.26
2017-05-14T06:37:19.219Z,17.19
2017-05-14T06:38:19.801Z,17.15
2017-05-14T06:39:20.381Z,17.22
2017-05-14T06:40:20.962Z,17.41
2017-05-14T06:41:21.545Z,17.56
2017-05-14T06:42:22.139Z,17.70
2017-05-14T06:43:22.720Z,17.36
2017-05-14T06:44:23.305Z,17.46
2017-05-14T06:45:23.895Z,17.31
2017-05-14T06:46:24.476Z,17.26
2017-05-14T06:47:25.057Z,17.20
2017-05-14T06:48:25.638Z,17.24
2017-05-14T06:49:26.220Z,17.23
2017-05-14T06:50:26.803Z,17.22
2017-05-14T06:51:27.383Z,17.31
2017-05-14T06:52:27.963Z,17.46
2017-05-14T06:53:28.547Z,17.59
2017-05-14T06:54:29.129Z,17.68
2017-05-14T06:55:29.717Z,17.36
2017-05-14T06:56:30.291Z,17.31
2017-05-14T06:57:30.874Z,17.29
2017-05-14T06:58:31.466Z,17.39
2017-05-14T06:59:32.049Z,17.39
2017-05-14T07:00:32.631Z,17.36
2017-05-14T07:01:33.213Z,17.34
2017-05-14T07:02:33.793Z,17.34
2017-05-14T07:03:34.374Z,17.46
2017-05-14T07:04:34.957Z,17.27
2017-05-14T07:05:35.539Z,17.46
2017-05-14T07:06:36.120Z,17.56
2017-05-14T07:07:36.701Z,17.60
2017-05-14T07:08:37.284Z,17.33
2017-05-14T07:09:37.866Z,17.49
2017-05-14T07:10:38.448Z,17.57
2017-05-14T07:11:39.029Z,17.83
2017-05-14T07:12:39.613Z,17.64
2017-05-14T07:13:40.206Z,17.56
2017-05-14T07:14:40.789Z,17.74
2017-05-14T07:15:41.372Z,17.46
2017-05-14T07:16:41.953Z,17.64
2017-05-14T07:17:42.534Z,17.60
2017-05-14T07:18:43.117Z,17.54
2017-05-14T07:19:43.698Z,17.59
2017-05-14T07:20:44.281Z,17.71
2017-05-14T07:21:44.876Z,17.57
2017-05-14T07:22:45.457Z,17.72
2017-05-14T07:23:46.038Z,17.78
2017-05-14T07:24:46.621Z,17.79
2017-05-14T07:25:47.203Z,17.78
2017-05-14T07:26:47.785Z,17.82
2017-05-14T07:27:48.366Z,17.94
2017-05-14T07:28:48.960Z,17.94
2017-05-14T07:29:49.541Z,18.04
2017-05-14T07:30:50.121Z,17.94
2017-05-14T07:31:50.716Z,17.90
2017-05-14T07:32:51.296Z,18.10
2017-05-14T07:33:51.881Z,18.19
2017-05-14T07:34:52.462Z,18.13
2017-05-14T07:35:53.044Z,18.38
2017-05-14T07:36:53.625Z,18.40
2017-05-14T07:37:54.208Z,18.35
2017-05-14T07:38:54.792Z,18.35
2017-05-14T07:39:55.374Z,18.44
2017-05-14T07:40:55.954Z,18.53
2017-05-14T07:41:56.538Z,18.56
2017-05-14T07:42:57.120Z,18.62
2017-05-14T07:43:57.703Z,18.44
2017-05-14T07:44:58.284Z,18.35
2017-05-14T07:45:58.865Z,18.44
2017-05-14T07:46:59.449Z,18.52
2017-05-14T07:48:00.029Z,18.38
2017-05-14T07:49:00.612Z,18.41
2017-05-14T07:50:01.195Z,18.43
2017-05-14T07:51:01.778Z,18.59
2017-05-14T07:52:02.362Z,18.33
2017-05-14T07:53:02.943Z,18.37
2017-05-14T07:54:03.538Z,18.49
2017-05-14T07:55:04.120Z,18.63
2017-05-14T07:56:04.702Z,18.88
2017-05-14T07:57:05.284Z,18.98
2017-05-14T07:58:05.870Z,18.92
2017-05-14T07:59:06.453Z,19.09
2017-05-14T08:00:07.034Z,19.21
2017-05-14T08:01:07.617Z,19.29
2017-05-14T08:02:08.199Z,19.45
2017-05-14T08:03:08.783Z,19.44
2017-05-14T08:04:09.368Z,19.27
2017-05-14T08:05:09.950Z,18.95
2017-05-14T08:06:10.532Z,19.04
2017-05-14T08:07:11.114Z,18.81
2017-05-14T08:08:11.697Z,19.09
2017-05-14T08:09:12.281Z,19.15
2017-05-14T08:10:12.863Z,19.11
2017-05-14T08:11:13.458Z,19.11
2017-05-14T08:12:14.042Z,19.45
2017-05-14T08:15:45.582Z,18.96
2017-05-14T08:16:46.157Z,19.22
2017-05-14T08:17:46.746Z,19.34
2017-05-14T08:18:47.327Z,19.49
2017-05-14T08:19:47.925Z,19.44
2017-05-14T08:20:48.508Z,19.47
2017-05-14T08:21:49.091Z,19.30
2017-05-14T08:22:49.676Z,19.44
2017-05-14T08:23:50.273Z,19.54
2017-05-14T08:24:50.860Z,19.56
2017-05-14T08:25:51.443Z,19.52
2017-05-14T08:26:52.028Z,19.59
2017-05-14T08:27:52.614Z,19.92
2017-05-14T08:28:53.197Z,20.06
2017-05-14T08:29:53.782Z,20.11
2017-05-14T08:30:54.368Z,20.40
2017-05-14T08:31:54.952Z,20.48
2017-05-14T08:32:55.535Z,20.40
2017-05-14T08:33:56.127Z,20.18
2017-05-14T08:34:56.704Z,20.26
2017-05-14T08:35:57.290Z,20.51
2017-05-14T08:36:57.874Z,20.60
2017-05-14T08:37:58.458Z,20.41
2017-05-14T08:38:59.042Z,20.59
2017-05-14T08:39:59.629Z,20.16
2017-05-14T08:41:00.209Z,20.26
2017-05-14T08:42:00.794Z,20.56
2017-05-14T08:43:01.378Z,20.40
2017-05-14T08:44:01.963Z,20.44
2017-05-14T08:45:02.547Z,20.60
2017-05-14T08:46:03.130Z,20.59
2017-05-14T08:47:03.716Z,20.60
2017-05-14T08:48:04.315Z,20.65
2017-05-14T08:49:04.899Z,20.62
2017-05-14T08:50:05.483Z,20.84
2017-05-14T08:51:06.069Z,20.99
2017-05-14T08:52:06.655Z,20.84
2017-05-14T08:53:07.243Z,21.02
2017-05-14T08:54:07.825Z,21.15
2017-05-14T08:55:08.410Z,21.21
2017-05-14T08:56:08.993Z,20.87
2017-05-14T08:57:09.579Z,21.12
2017-05-14T08:58:10.164Z,21.22
2017-05-14T08:59:10.749Z,21.25
2017-05-14T09:00:11.333Z,21.50
2017-05-14T09:01:11.931Z,21.30
2017-05-14T09:02:12.517Z,21.45
2017-05-14T09:03:13.102Z,21.42
2017-05-14T09:04:13.687Z,21.52
2017-05-14T09:05:14.272Z,21.55
2017-05-14T09:06:14.870Z,21.36
2017-05-14T09:07:15.455Z,21.50
2017-05-14T09:08:16.039Z,20.78
2017-05-14T09:09:16.623Z,20.75
2017-05-14T09:10:17.208Z,20.74
2017-05-14T09:11:17.794Z,20.69
2017-05-14T09:12:18.380Z,20.80
2017-05-14T09:13:18.966Z,21.15
2017-05-14T09:14:19.548Z,21.22
2017-05-14T09:15:20.135Z,21.60
2017-05-14T09:16:20.721Z,21.52
2017-05-14T09:17:21.306Z,21.80
2017-05-14T09:18:21.897Z,22.02
2017-05-14T09:19:22.476Z,21.58
2017-05-14T09:20:23.070Z,21.33
2017-05-14T09:21:23.656Z,21.33
2017-05-14T09:22:24.240Z,21.17
2017-05-14T09:23:24.823Z,20.82
2017-05-14T09:24:25.410Z,20.77
2017-05-14T09:25:25.996Z,21.02
2017-05-14T09:26:26.590Z,21.45
2017-05-14T09:27:27.181Z,21.03
2017-05-14T09:28:27.768Z,21.30
2017-05-14T09:29:28.356Z,21.82
2017-05-14T09:30:28.941Z,21.89
2017-05-14T09:31:29.527Z,22.22
2017-05-14T09:32:30.113Z,21.96
2017-05-14T09:33:30.712Z,21.99
2017-05-14T09:34:31.301Z,21.67
2017-05-14T09:35:31.886Z,21.57
2017-05-14T09:36:32.486Z,22.02
2017-05-14T09:37:33.072Z,22.29
2017-05-14T09:38:33.659Z,22.25
2017-05-14T09:39:34.260Z,22.41
2017-05-14T09:40:34.862Z,22.38
2017-05-14T09:41:35.463Z,22.53
2017-05-14T09:42:36.048Z,22.72
2017-05-14T09:43:36.634Z,22.45
2017-05-14T09:44:37.222Z,22.26
2017-05-14T09:45:37.809Z,21.67
2017-05-14T09:46:38.391Z,21.77
2017-05-14T09:47:38.977Z,21.89
2017-05-14T09:48:39.565Z,21.55
2017-05-14T09:49:40.161Z,21.33
2017-05-14T09:50:40.745Z,20.96
2017-05-14T09:51:41.330Z,21.21
2017-05-14T09:52:41.914Z,21.22
2017-05-14T09:53:42.501Z,21.43
2017-05-14T09:54:43.086Z,20.92
2017-05-14T09:55:43.671Z,20.70
2017-05-14T09:56:44.259Z,20.69
2017-05-14T09:57:44.844Z,20.65
2017-05-14T09:58:45.427Z,20.56
2017-05-14T09:59:46.013Z,20.51
2017-05-14T10:00:46.598Z,20.40
2017-05-14T10:01:47.185Z,20.70
2017-05-14T10:02:47.769Z,20.95
2017-05-14T10:03:48.356Z,20.93
2017-05-14T10:04:48.954Z,20.90
2017-05-14T10:05:49.541Z,20.85
2017-05-14T10:06:50.125Z,21.05
2017-05-14T10:07:50.709Z,21.02
2017-05-14T10:08:51.296Z,20.63
2017-05-14T10:09:51.880Z,20.65
2017-05-14T10:10:52.466Z,20.66
2017-05-14T10:11:53.053Z,20.80
2017-05-14T10:12:53.639Z,21.00
2017-05-14T10:13:54.222Z,20.97
2017-05-14T10:14:54.807Z,20.77
2017-05-14T10:15:55.395Z,21.20
2017-05-14T10:16:55.994Z,21.30
2017-05-14T10:17:56.581Z,21.51
2017-05-14T10:18:57.167Z,21.52
2017-05-14T10:19:57.754Z,21.99
2017-05-14T10:20:58.339Z,22.25
2017-05-14T10:21:58.924Z,21.92
2017-05-14T10:22:59.509Z,22.15
2017-05-14T10:24:00.095Z,22.02
2017-05-14T10:25:00.681Z,22.15
2017-05-14T10:26:01.269Z,22.41
2017-05-14T10:27:01.855Z,22.54
2017-05-14T10:28:02.444Z,22.41
2017-05-14T10:29:03.042Z,22.13
2017-05-14T10:30:03.630Z,22.29
2017-05-14T10:31:04.214Z,22.08
2017-05-14T10:32:04.799Z,22.02
2017-05-14T10:33:05.398Z,22.11
2017-05-14T10:34:05.984Z,21.98
2017-05-14T10:35:06.570Z,22.15
2017-05-14T10:36:07.153Z,22.29
2017-05-14T10:37:07.740Z,21.76
2017-05-14T10:38:08.326Z,21.40
2017-05-14T10:39:08.911Z,21.25
2017-05-14T10:40:09.496Z,21.09
2017-05-14T10:41:10.082Z,21.06
2017-05-14T10:42:10.681Z,21.39
2017-05-14T10:43:11.268Z,21.76
2017-05-14T10:44:11.855Z,21.67
2017-05-14T10:45:12.440Z,21.79
2017-05-14T10:46:13.025Z,21.57
2017-05-14T10:47:13.610Z,21.27
2017-05-14T10:48:14.209Z,21.18
2017-05-14T10:49:14.791Z,20.82
2017-05-14T10:50:15.378Z,20.85
2017-05-14T10:51:15.977Z,20.90
2017-05-14T10:52:16.575Z,20.77
2017-05-14T10:53:17.160Z,20.81
2017-05-14T10:54:17.746Z,20.82
2017-05-14T10:55:18.334Z,20.93
2017-05-14T10:56:18.918Z,20.72
2017-05-14T10:57:19.500Z,21.00
2017-05-14T10:58:20.088Z,21.18
2017-05-14T10:59:20.673Z,21.29
2017-05-14T11:00:21.258Z,21.15
2017-05-14T11:01:21.841Z,21.14
2017-05-14T11:02:22.441Z,21.20
2017-05-14T11:03:23.026Z,21.18
2017-05-14T11:04:23.614Z,21.03
2017-05-14T11:05:24.200Z,20.99
2017-05-14T11:06:24.797Z,21.14
2017-05-14T11:07:25.382Z,20.87
2017-05-14T11:08:25.969Z,20.77
2017-05-14T11:09:26.556Z,20.77
2017-05-14T11:10:27.138Z,21.05
2017-05-14T11:11:27.727Z,21.22
2017-05-14T11:12:28.311Z,21.66
2017-05-14T11:13:28.897Z,21.80
2017-05-14T11:14:29.485Z,22.23
2017-05-14T11:15:30.070Z,22.07
2017-05-14T11:16:30.655Z,22.14
2017-05-14T11:17:31.241Z,21.92
2017-05-14T11:18:31.826Z,21.91
2017-05-14T11:19:32.412Z,21.70
2017-05-14T11:20:32.998Z,22.14
2017-05-14T11:21:33.583Z,22.04
2017-05-14T11:22:34.171Z,22.00
2017-05-14T11:23:34.770Z,21.98
2017-05-14T11:24:35.354Z,22.25
2017-05-14T11:25:35.941Z,22.14
2017-05-14T11:26:36.528Z,22.04
2017-05-14T11:27:37.115Z,22.08
2017-05-14T11:28:37.703Z,22.18
2017-05-14T11:29:38.291Z,22.50
2017-05-14T11:30:38.877Z,22.47
2017-05-14T11:31:39.464Z,22.53
2017-05-14T11:32:40.051Z,22.57
2017-05-14T11:33:40.636Z,22.39
2017-05-14T11:34:41.223Z,22.20
2017-05-14T11:35:41.810Z,22.15
2017-05-14T11:36:42.396Z,22.25
2017-05-14T11:37:42.983Z,22.17
2017-05-14T11:38:43.570Z,22.14
2017-05-14T11:39:44.156Z,22.06
2017-05-14T11:40:44.756Z,22.38
2017-05-14T11:41:45.355Z,22.11
2017-05-14T11:42:45.939Z,22.20
2017-05-14T11:43:46.526Z,21.99
2017-05-14T11:44:47.110Z,22.17
2017-05-14T11:45:47.694Z,22.13
2017-05-14T11:46:48.284Z,22.17
2017-05-14T11:47:48.879Z,21.91
2017-05-14T11:48:49.465Z,21.79
2017-05-14T11:49:50.051Z,21.61
2017-05-14T11:50:50.636Z,21.54
2017-05-14T11:51:51.223Z,21.55
2017-05-14T11:52:51.812Z,21.45
2017-05-14T11:53:52.395Z,21.33
2017-05-14T11:54:52.979Z,21.33
2017-05-14T11:55:53.566Z,21.46
2017-05-14T11:56:54.150Z,21.24
2017-05-14T11:57:54.734Z,21.24
2017-05-14T11:58:55.322Z,21.02
2017-05-14T11:59:55.905Z,21.09
2017-05-14T12:00:56.490Z,20.92
2017-05-14T12:01:57.074Z,20.85
2017-05-14T12:02:57.660Z,20.69
2017-05-14T12:03:58.247Z,20.82
2017-05-14T12:04:58.837Z,20.77
2017-05-14T12:05:59.413Z,20.69
2017-05-14T12:07:00.012Z,20.44
2017-05-14T12:08:00.610Z,20.65
2017-05-14T12:09:01.195Z,20.59
2017-05-14T12:10:01.779Z,20.63
2017-05-14T12:11:02.366Z,20.74
2017-05-14T12:12:02.950Z,20.52
2017-05-14T12:13:03.538Z,20.75
2017-05-14T12:14:04.126Z,20.00
2017-05-14T12:15:04.710Z,19.94
2017-05-14T12:16:05.295Z,19.92
2017-05-14T12:17:05.882Z,19.99
2017-05-14T12:18:06.466Z,19.66
2017-05-14T12:19:07.066Z,19.76
2017-05-14T12:20:07.654Z,19.77
2017-05-14T12:21:08.238Z,19.81
2017-05-14T12:22:08.825Z,19.99
2017-05-14T12:23:09.423Z,20.09
2017-05-14T12:24:10.023Z,20.58
2017-05-14T12:25:10.607Z,20.78
2017-05-14T12:26:11.194Z,20.74
2017-05-14T12:27:11.780Z,21.02
2017-05-14T12:28:12.379Z,21.45
2017-05-14T12:29:12.964Z,21.64
2017-05-14T12:30:13.563Z,21.36
2017-05-14T12:31:14.147Z,21.57
2017-05-14T12:32:14.732Z,20.82
2017-05-14T12:33:15.317Z,20.75
2017-05-14T12:34:15.902Z,20.88
2017-05-14T12:35:16.487Z,20.84
2017-05-14T12:36:17.073Z,21.24
2017-05-14T12:37:17.657Z,20.96
2017-05-14T12:38:18.242Z,20.90
2017-05-14T12:39:18.829Z,20.74
2017-05-14T12:40:19.413Z,20.77
2017-05-14T12:41:19.998Z,20.58
2017-05-14T12:42:20.583Z,20.58
2017-05-14T12:43:21.169Z,20.50
2017-05-14T12:44:21.754Z,20.55
2017-05-14T12:45:22.341Z,20.77
2017-05-14T12:46:22.928Z,21.09
2017-05-14T12:47:23.512Z,21.35
2017-05-14T12:48:24.100Z,21.64
2017-05-14T12:49:24.686Z,22.20
2017-05-14T12:50:25.287Z,22.80
2017-05-14T12:51:25.872Z,22.83
2017-05-14T12:52:26.459Z,22.47
2017-05-14T12:53:27.046Z,22.33
2017-05-14T12:54:27.643Z,22.08
2017-05-14T12:55:28.245Z,21.69
2017-05-14T12:56:28.833Z,21.80
2017-05-14T12:57:29.428Z,21.51
2017-05-14T12:58:30.012Z,21.42
2017-05-14T12:59:30.596Z,21.60
2017-05-14T13:00:31.184Z,21.48
2017-05-14T13:01:31.770Z,21.18
2017-05-14T13:02:32.358Z,21.15